sensor_id;sensor_type;location;lat;lon;timestamp;temperature;humidity
10905;DHT22;5505;51.450;9.254;2023-09-19T00:00:23;15.20;99.90
10905;DHT22;5505;51.450;9.254;2023-09-19T00:03:14;15.20;99.90
10905;DHT22;5505;51.450;9.254;2023-09-19T00:06:01;15.20;99.90
10905;DHT22;5505;51.450;9.254;2023-09-19T00:08:48;15.20;99.90
10905;DHT22;5505;51.450;9.254;2023-09-19T00:11:34;15.20;99.90
10905;DHT22;5505;51.450;9.254;2023-09-19T00:14:24;15.30;99.90
10905;DHT22;5505;51.450;9.254;2023-09-19T00:17:11;15.80;99.90
10905;DHT22;5505;51.450;9.254;2023-09-19T00:19:59;15.40;99.90
10905;DHT22;5505;51.450;9.254;2023-09-19T00:22:58;15.40;99.90
10905;DHT22;5505;51.450;9.254;2023-09-19T00:25:51;15.40;99.90
10905;DHT22;5505;51.450;9.254;2023-09-19T00:28:37;15.40;99.90
10905;DHT22;5505;51.450;9.254;2023-09-19T00:31:25;15.40;99.90
10905;DHT22;5505;51.450;9.254;2023-09-19T00:34:11;15.40;99.90
10905;DHT22;5505;51.450;9.254;2023-09-19T00:37:00;15.40;99.90
10905;DHT22;5505;51.450;9.254;2023-09-19T00:39:46;15.30;99.90
10905;DHT22;5505;51.450;9.254;2023-09-19T00:42:33;15.30;99.90
10905;DHT22;5505;51.450;9.254;2023-09-19T00:45:23;15.30;99.90
10905;DHT22;5505;51.450;9.254;2023-09-19T00:48:10;15.30;99.90
10905;DHT22;5505;51.450;9.254;2023-09-19T00:50:59;15.20;99.90
10905;DHT22;5505;51.450;9.254;2023-09-19T00:53:51;15.30;99.90
10905;DHT22;5505;51.450;9.254;2023-09-19T00:56:38;15.30;99.90
10905;DHT22;5505;51.450;9.254;2023-09-19T00:59:25;15.20;99.90
10905;DHT22;5505;51.450;9.254;2023-09-19T01:02:12;15.20;99.90
10905;DHT22;5505;51.450;9.254;2023-09-19T01:05:00;14.70;99.90
10905;DHT22;5505;51.450;9.254;2023-09-19T01:07:49;15.10;99.90
10905;DHT22;5505;51.450;9.254;2023-09-19T01:10:46;15.10;99.90
10905;DHT22;5505;51.450;9.254;2023-09-19T01:13:47;15.10;99.90
10905;DHT22;5505;51.450;9.254;2023-09-19T01:16:38;15.00;99.90
10905;DHT22;5505;51.450;9.254;2023-09-19T01:23:11;15.10;99.90
10905;DHT22;5505;51.450;9.254;2023-09-19T01:26:16;15.00;99.90
10905;DHT22;5505;51.450;9.254;2023-09-19T01:29:26;15.10;99.90
10905;DHT22;5505;51.450;9.254;2023-09-19T01:32:22;15.00;99.90
10905;DHT22;5505;51.450;9.254;2023-09-19T01:35:10;15.00;99.90
10905;DHT22;5505;51.450;9.254;2023-09-19T01:37:58;15.70;99.90
10905;DHT22;5505;51.450;9.254;2023-09-19T01:40:57;15.00;99.90
10905;DHT22;5505;51.450;9.254;2023-09-19T01:43:46;14.90;99.90
10905;DHT22;5505;51.450;9.254;2023-09-19T01:46:38;14.80;99.90
10905;DHT22;5505;51.450;9.254;2023-09-19T01:49:33;14.80;99.90
10905;DHT22;5505;51.450;9.254;2023-09-19T01:52:30;14.80;99.90
10905;DHT22;5505;51.450;9.254;2023-09-19T01:55:19;14.80;99.90
10905;DHT22;5505;51.450;9.254;2023-09-19T01:58:14;14.80;99.90
10905;DHT22;5505;51.450;9.254;2023-09-19T02:01:03;15.40;99.90
10905;DHT22;5505;51.450;9.254;2023-09-19T02:03:52;14.70;99.90
10905;DHT22;5505;51.450;9.254;2023-09-19T02:06:41;14.70;99.90
10905;DHT22;5505;51.450;9.254;2023-09-19T02:09:28;14.60;99.90
10905;DHT22;5505;51.450;9.254;2023-09-19T02:12:15;14.60;99.90
10905;DHT22;5505;51.450;9.254;2023-09-19T02:15:02;14.60;99.90
10905;DHT22;5505;51.450;9.254;2023-09-19T02:17:52;14.60;99.90
10905;DHT22;5505;51.450;9.254;2023-09-19T02:20:39;14.50;99.90
10905;DHT22;5505;51.450;9.254;2023-09-19T02:23:27;14.60;99.90
10905;DHT22;5505;51.450;9.254;2023-09-19T02:26:15;14.40;99.90
10905;DHT22;5505;51.450;9.254;2023-09-19T02:29:02;14.40;99.90
10905;DHT22;5505;51.450;9.254;2023-09-19T02:31:50;14.40;99.90
10905;DHT22;5505;51.450;9.254;2023-09-19T02:34:37;14.30;99.90
10905;DHT22;5505;51.450;9.254;2023-09-19T02:37:24;14.30;99.90
10905;DHT22;5505;51.450;9.254;2023-09-19T02:40:13;14.20;99.90
10905;DHT22;5505;51.450;9.254;2023-09-19T02:43:05;14.20;99.90
10905;DHT22;5505;51.450;9.254;2023-09-19T02:45:53;14.10;99.90
10905;DHT22;5505;51.450;9.254;2023-09-19T02:48:40;14.10;99.90
10905;DHT22;5505;51.450;9.254;2023-09-19T02:51:27;14.00;99.90
10905;DHT22;5505;51.450;9.254;2023-09-19T02:54:14;14.00;99.90
10905;DHT22;5505;51.450;9.254;2023-09-19T02:57:03;14.00;99.90
10905;DHT22;5505;51.450;9.254;2023-09-19T02:59:52;14.00;99.90
10905;DHT22;5505;51.450;9.254;2023-09-19T03:02:39;14.00;99.90
10905;DHT22;5505;51.450;9.254;2023-09-19T03:05:26;14.00;99.90
10905;DHT22;5505;51.450;9.254;2023-09-19T03:08:16;14.00;99.90
10905;DHT22;5505;51.450;9.254;2023-09-19T03:11:03;13.90;99.90
10905;DHT22;5505;51.450;9.254;2023-09-19T03:13:53;13.90;99.90
10905;DHT22;5505;51.450;9.254;2023-09-19T03:16:40;13.80;99.90
10905;DHT22;5505;51.450;9.254;2023-09-19T03:19:27;13.80;99.90
10905;DHT22;5505;51.450;9.254;2023-09-19T03:22:15;13.70;99.90
10905;DHT22;5505;51.450;9.254;2023-09-19T03:25:02;13.70;99.90
10905;DHT22;5505;51.450;9.254;2023-09-19T03:27:53;13.70;99.90
10905;DHT22;5505;51.450;9.254;2023-09-19T03:30:41;13.70;99.90
10905;DHT22;5505;51.450;9.254;2023-09-19T03:33:29;13.70;99.90
10905;DHT22;5505;51.450;9.254;2023-09-19T03:36:17;13.70;99.90
10905;DHT22;5505;51.450;9.254;2023-09-19T03:39:04;13.70;99.90
10905;DHT22;5505;51.450;9.254;2023-09-19T03:41:51;13.70;99.90
10905;DHT22;5505;51.450;9.254;2023-09-19T03:44:38;13.70;99.90
10905;DHT22;5505;51.450;9.254;2023-09-19T03:47:26;13.70;99.90
10905;DHT22;5505;51.450;9.254;2023-09-19T03:50:13;13.80;99.90
10905;DHT22;5505;51.450;9.254;2023-09-19T03:53:03;13.80;99.90
10905;DHT22;5505;51.450;9.254;2023-09-19T03:55:50;13.70;99.90
10905;DHT22;5505;51.450;9.254;2023-09-19T03:58:36;13.80;99.90
10905;DHT22;5505;51.450;9.254;2023-09-19T04:01:25;13.80;99.90
10905;DHT22;5505;51.450;9.254;2023-09-19T04:04:14;13.90;99.90
10905;DHT22;5505;51.450;9.254;2023-09-19T04:07:04;13.90;99.90
10905;DHT22;5505;51.450;9.254;2023-09-19T04:09:51;13.80;99.90
10905;DHT22;5505;51.450;9.254;2023-09-19T04:12:38;13.80;99.90
10905;DHT22;5505;51.450;9.254;2023-09-19T04:15:25;13.80;99.90
10905;DHT22;5505;51.450;9.254;2023-09-19T04:18:12;13.70;99.90
10905;DHT22;5505;51.450;9.254;2023-09-19T04:21:00;13.60;99.90
10905;DHT22;5505;51.450;9.254;2023-09-19T04:23:49;13.60;99.90
10905;DHT22;5505;51.450;9.254;2023-09-19T04:26:36;13.50;99.90
10905;DHT22;5505;51.450;9.254;2023-09-19T04:29:23;13.50;99.90
10905;DHT22;5505;51.450;9.254;2023-09-19T04:32:12;13.50;99.90
10905;DHT22;5505;51.450;9.254;2023-09-19T04:34:58;13.50;99.90
10905;DHT22;5505;51.450;9.254;2023-09-19T04:37:50;14.10;99.90
10905;DHT22;5505;51.450;9.254;2023-09-19T04:40:38;13.50;99.90
10905;DHT22;5505;51.450;9.254;2023-09-19T04:43:26;13.50;99.90
10905;DHT22;5505;51.450;9.254;2023-09-19T04:46:14;13.50;99.90
10905;DHT22;5505;51.450;9.254;2023-09-19T04:49:01;13.50;99.90
10905;DHT22;5505;51.450;9.254;2023-09-19T04:51:48;13.50;99.90
10905;DHT22;5505;51.450;9.254;2023-09-19T04:54:36;13.50;99.90
10905;DHT22;5505;51.450;9.254;2023-09-19T04:57:23;13.50;99.90
10905;DHT22;5505;51.450;9.254;2023-09-19T05:00:12;13.50;99.90
10905;DHT22;5505;51.450;9.254;2023-09-19T05:03:00;13.50;99.90
10905;DHT22;5505;51.450;9.254;2023-09-19T05:05:49;13.50;99.90
10905;DHT22;5505;51.450;9.254;2023-09-19T05:08:36;13.50;99.90
10905;DHT22;5505;51.450;9.254;2023-09-19T05:11:25;13.50;99.90
10905;DHT22;5505;51.450;9.254;2023-09-19T05:14:12;13.50;99.90
10905;DHT22;5505;51.450;9.254;2023-09-19T05:16:59;13.50;99.90
10905;DHT22;5505;51.450;9.254;2023-09-19T05:19:46;13.50;99.90
10905;DHT22;5505;51.450;9.254;2023-09-19T05:22:33;13.50;99.90
10905;DHT22;5505;51.450;9.254;2023-09-19T05:25:20;13.50;99.90
10905;DHT22;5505;51.450;9.254;2023-09-19T05:28:10;13.60;99.90
10905;DHT22;5505;51.450;9.254;2023-09-19T05:31:00;13.60;99.90
10905;DHT22;5505;51.450;9.254;2023-09-19T05:33:48;13.60;99.90
10905;DHT22;5505;51.450;9.254;2023-09-19T05:36:35;13.60;99.90
10905;DHT22;5505;51.450;9.254;2023-09-19T05:39:22;12.90;99.90
10905;DHT22;5505;51.450;9.254;2023-09-19T05:42:09;13.60;99.90
10905;DHT22;5505;51.450;9.254;2023-09-19T05:44:57;13.60;99.90
10905;DHT22;5505;51.450;9.254;2023-09-19T05:47:44;13.60;99.90
10905;DHT22;5505;51.450;9.254;2023-09-19T05:50:31;13.50;99.90
10905;DHT22;5505;51.450;9.254;2023-09-19T05:53:18;14.50;99.90
10905;DHT22;5505;51.450;9.254;2023-09-19T05:56:05;13.60;99.90
10905;DHT22;5505;51.450;9.254;2023-09-19T05:58:52;13.60;99.90
10905;DHT22;5505;51.450;9.254;2023-09-19T06:01:40;13.70;99.90
10905;DHT22;5505;51.450;9.254;2023-09-19T06:04:27;13.70;99.90
10905;DHT22;5505;51.450;9.254;2023-09-19T06:07:16;13.70;99.90
10905;DHT22;5505;51.450;9.254;2023-09-19T06:10:03;13.70;99.90
10905;DHT22;5505;51.450;9.254;2023-09-19T06:12:52;13.60;99.90
10905;DHT22;5505;51.450;9.254;2023-09-19T06:15:40;13.60;99.90
10905;DHT22;5505;51.450;9.254;2023-09-19T06:18:28;13.50;99.90
10905;DHT22;5505;51.450;9.254;2023-09-19T06:21:19;13.60;99.90
10905;DHT22;5505;51.450;9.254;2023-09-19T06:24:06;13.50;99.90
10905;DHT22;5505;51.450;9.254;2023-09-19T06:26:53;13.50;99.90
10905;DHT22;5505;51.450;9.254;2023-09-19T06:29:40;14.60;99.90
10905;DHT22;5505;51.450;9.254;2023-09-19T06:32:27;13.60;99.90
10905;DHT22;5505;51.450;9.254;2023-09-19T06:35:16;13.60;99.90
10905;DHT22;5505;51.450;9.254;2023-09-19T06:38:03;13.60;99.90
10905;DHT22;5505;51.450;9.254;2023-09-19T06:40:51;13.60;99.90
10905;DHT22;5505;51.450;9.254;2023-09-19T06:43:38;13.70;99.90
10905;DHT22;5505;51.450;9.254;2023-09-19T06:46:24;13.80;99.90
10905;DHT22;5505;51.450;9.254;2023-09-19T06:49:11;13.80;99.90
10905;DHT22;5505;51.450;9.254;2023-09-19T06:52:00;13.80;99.90
10905;DHT22;5505;51.450;9.254;2023-09-19T06:54:48;13.90;99.90
10905;DHT22;5505;51.450;9.254;2023-09-19T06:57:35;13.90;99.90
10905;DHT22;5505;51.450;9.254;2023-09-19T07:00:22;13.90;99.90
10905;DHT22;5505;51.450;9.254;2023-09-19T07:03:09;14.00;99.90
10905;DHT22;5505;51.450;9.254;2023-09-19T07:05:57;14.40;99.90
10905;DHT22;5505;51.450;9.254;2023-09-19T07:08:45;14.10;99.90
10905;DHT22;5505;51.450;9.254;2023-09-19T07:11:32;14.10;99.90
10905;DHT22;5505;51.450;9.254;2023-09-19T07:14:19;14.10;99.90
10905;DHT22;5505;51.450;9.254;2023-09-19T07:17:06;14.20;99.90
10905;DHT22;5505;51.450;9.254;2023-09-19T07:19:53;14.40;99.90
10905;DHT22;5505;51.450;9.254;2023-09-19T07:22:40;14.30;99.90
10905;DHT22;5505;51.450;9.254;2023-09-19T07:25:28;14.30;99.90
10905;DHT22;5505;51.450;9.254;2023-09-19T07:28:15;14.40;99.90
10905;DHT22;5505;51.450;9.254;2023-09-19T07:31:02;14.40;99.90
10905;DHT22;5505;51.450;9.254;2023-09-19T07:33:50;14.40;99.90
10905;DHT22;5505;51.450;9.254;2023-09-19T07:36:37;14.40;99.90
10905;DHT22;5505;51.450;9.254;2023-09-19T07:39:24;14.50;99.90
10905;DHT22;5505;51.450;9.254;2023-09-19T07:42:12;14.50;99.90
10905;DHT22;5505;51.450;9.254;2023-09-19T07:45:03;14.60;99.90
10905;DHT22;5505;51.450;9.254;2023-09-19T07:47:50;14.70;99.90
10905;DHT22;5505;51.450;9.254;2023-09-19T07:50:37;14.70;99.90
10905;DHT22;5505;51.450;9.254;2023-09-19T07:53:25;14.80;99.90
10905;DHT22;5505;51.450;9.254;2023-09-19T07:56:13;14.90;99.90
10905;DHT22;5505;51.450;9.254;2023-09-19T07:59:02;14.90;99.90
10905;DHT22;5505;51.450;9.254;2023-09-19T08:01:49;15.00;99.90
10905;DHT22;5505;51.450;9.254;2023-09-19T08:04:36;15.00;99.90
10905;DHT22;5505;51.450;9.254;2023-09-19T08:07:23;15.10;99.90
10905;DHT22;5505;51.450;9.254;2023-09-19T08:10:10;15.10;99.90
10905;DHT22;5505;51.450;9.254;2023-09-19T08:12:58;15.10;99.90
10905;DHT22;5505;51.450;9.254;2023-09-19T08:15:47;15.20;99.90
10905;DHT22;5505;51.450;9.254;2023-09-19T08:18:34;15.10;99.90
10905;DHT22;5505;51.450;9.254;2023-09-19T08:21:21;15.10;99.90
10905;DHT22;5505;51.450;9.254;2023-09-19T08:24:09;15.20;99.90
10905;DHT22;5505;51.450;9.254;2023-09-19T08:26:56;15.20;99.90
10905;DHT22;5505;51.450;9.254;2023-09-19T08:29:43;15.30;99.90
10905;DHT22;5505;51.450;9.254;2023-09-19T08:32:31;15.30;99.90
10905;DHT22;5505;51.450;9.254;2023-09-19T08:35:18;15.30;99.90
10905;DHT22;5505;51.450;9.254;2023-09-19T08:38:05;15.40;99.90
10905;DHT22;5505;51.450;9.254;2023-09-19T08:40:52;16.20;99.90
10905;DHT22;5505;51.450;9.254;2023-09-19T08:43:38;15.50;99.90
10905;DHT22;5505;51.450;9.254;2023-09-19T08:46:26;15.50;99.90
10905;DHT22;5505;51.450;9.254;2023-09-19T08:49:24;15.60;99.90
10905;DHT22;5505;51.450;9.254;2023-09-19T08:52:20;15.60;99.90
10905;DHT22;5505;51.450;9.254;2023-09-19T08:55:12;15.60;99.90
10905;DHT22;5505;51.450;9.254;2023-09-19T08:58:00;15.70;99.90
10905;DHT22;5505;51.450;9.254;2023-09-19T09:00:48;15.80;99.90
10905;DHT22;5505;51.450;9.254;2023-09-19T09:03:37;15.90;99.90
10905;DHT22;5505;51.450;9.254;2023-09-19T09:06:26;16.00;99.90
10905;DHT22;5505;51.450;9.254;2023-09-19T09:09:14;16.20;99.90
10905;DHT22;5505;51.450;9.254;2023-09-19T09:12:03;16.20;99.90
10905;DHT22;5505;51.450;9.254;2023-09-19T09:14:51;16.30;99.90
10905;DHT22;5505;51.450;9.254;2023-09-19T09:17:38;16.90;99.90
10905;DHT22;5505;51.450;9.254;2023-09-19T09:20:25;16.50;99.90
10905;DHT22;5505;51.450;9.254;2023-09-19T09:23:14;16.60;99.90
10905;DHT22;5505;51.450;9.254;2023-09-19T09:26:01;16.70;99.90
10905;DHT22;5505;51.450;9.254;2023-09-19T09:28:50;16.60;99.90
10905;DHT22;5505;51.450;9.254;2023-09-19T09:31:39;16.60;99.90
10905;DHT22;5505;51.450;9.254;2023-09-19T09:34:32;16.70;99.90
10905;DHT22;5505;51.450;9.254;2023-09-19T09:37:20;16.80;99.90
10905;DHT22;5505;51.450;9.254;2023-09-19T09:40:09;16.90;99.90
10905;DHT22;5505;51.450;9.254;2023-09-19T09:43:26;17.00;99.90
10905;DHT22;5505;51.450;9.254;2023-09-19T09:46:15;17.10;99.90
10905;DHT22;5505;51.450;9.254;2023-09-19T09:49:39;17.10;99.90
10905;DHT22;5505;51.450;9.254;2023-09-19T09:52:25;17.10;99.90
10905;DHT22;5505;51.450;9.254;2023-09-19T09:55:13;17.20;99.90
10905;DHT22;5505;51.450;9.254;2023-09-19T09:58:18;17.20;99.90
10905;DHT22;5505;51.450;9.254;2023-09-19T10:01:09;17.40;99.90
10905;DHT22;5505;51.450;9.254;2023-09-19T10:04:00;17.40;99.90
10905;DHT22;5505;51.450;9.254;2023-09-19T10:06:47;17.30;99.90
10905;DHT22;5505;51.450;9.254;2023-09-19T10:09:45;17.20;99.90
10905;DHT22;5505;51.450;9.254;2023-09-19T10:12:34;17.30;99.90
10905;DHT22;5505;51.450;9.254;2023-09-19T10:15:24;17.30;99.90
10905;DHT22;5505;51.450;9.254;2023-09-19T10:18:16;17.30;99.90
10905;DHT22;5505;51.450;9.254;2023-09-19T10:21:04;17.30;99.90
10905;DHT22;5505;51.450;9.254;2023-09-19T10:23:54;17.30;99.90
10905;DHT22;5505;51.450;9.254;2023-09-19T10:26:42;17.30;99.90
10905;DHT22;5505;51.450;9.254;2023-09-19T10:29:34;17.30;99.90
10905;DHT22;5505;51.450;9.254;2023-09-19T10:32:22;17.30;99.90
10905;DHT22;5505;51.450;9.254;2023-09-19T10:35:11;17.40;99.90
10905;DHT22;5505;51.450;9.254;2023-09-19T10:38:00;17.40;99.90
10905;DHT22;5505;51.450;9.254;2023-09-19T10:40:50;17.40;99.90
10905;DHT22;5505;51.450;9.254;2023-09-19T10:43:39;17.50;99.90
10905;DHT22;5505;51.450;9.254;2023-09-19T10:46:31;17.60;99.90
10905;DHT22;5505;51.450;9.254;2023-09-19T10:49:19;17.50;99.90
10905;DHT22;5505;51.450;9.254;2023-09-19T10:52:07;17.50;99.90
10905;DHT22;5505;51.450;9.254;2023-09-19T10:54:58;17.40;99.90
10905;DHT22;5505;51.450;9.254;2023-09-19T10:57:46;17.50;99.90
10905;DHT22;5505;51.450;9.254;2023-09-19T11:00:50;17.50;99.90
10905;DHT22;5505;51.450;9.254;2023-09-19T11:03:39;17.50;99.90
10905;DHT22;5505;51.450;9.254;2023-09-19T11:06:28;17.50;99.90
10905;DHT22;5505;51.450;9.254;2023-09-19T11:09:15;17.50;99.90
10905;DHT22;5505;51.450;9.254;2023-09-19T11:12:07;17.50;99.90
10905;DHT22;5505;51.450;9.254;2023-09-19T11:14:54;17.50;99.90
10905;DHT22;5505;51.450;9.254;2023-09-19T11:17:42;17.60;99.90
10905;DHT22;5505;51.450;9.254;2023-09-19T11:20:33;17.60;99.90
10905;DHT22;5505;51.450;9.254;2023-09-19T11:23:27;17.70;99.90
10905;DHT22;5505;51.450;9.254;2023-09-19T11:26:40;17.80;99.90
10905;DHT22;5505;51.450;9.254;2023-09-19T11:29:30;17.90;99.90
10905;DHT22;5505;51.450;9.254;2023-09-19T11:36:05;18.00;99.90
10905;DHT22;5505;51.450;9.254;2023-09-19T11:38:58;18.10;99.90
10905;DHT22;5505;51.450;9.254;2023-09-19T11:41:53;18.10;99.90
10905;DHT22;5505;51.450;9.254;2023-09-19T11:44:43;18.10;99.90
10905;DHT22;5505;51.450;9.254;2023-09-19T11:47:31;18.00;99.90
10905;DHT22;5505;51.450;9.254;2023-09-19T11:50:20;18.00;99.90
10905;DHT22;5505;51.450;9.254;2023-09-19T11:53:09;18.10;99.90
10905;DHT22;5505;51.450;9.254;2023-09-19T11:55:58;18.10;99.90
10905;DHT22;5505;51.450;9.254;2023-09-19T11:58:46;18.10;99.90
10905;DHT22;5505;51.450;9.254;2023-09-19T12:01:43;18.20;99.90
10905;DHT22;5505;51.450;9.254;2023-09-19T12:04:42;18.00;99.90
10905;DHT22;5505;51.450;9.254;2023-09-19T12:07:42;18.00;99.90
10905;DHT22;5505;51.450;9.254;2023-09-19T12:10:31;18.00;99.90
10905;DHT22;5505;51.450;9.254;2023-09-19T12:13:18;18.10;99.90
10905;DHT22;5505;51.450;9.254;2023-09-19T12:16:12;18.20;99.90
10905;DHT22;5505;51.450;9.254;2023-09-19T12:19:18;18.20;99.90
10905;DHT22;5505;51.450;9.254;2023-09-19T12:22:07;18.30;99.90
10905;DHT22;5505;51.450;9.254;2023-09-19T12:25:05;18.40;99.90
10905;DHT22;5505;51.450;9.254;2023-09-19T12:27:55;18.40;99.90
10905;DHT22;5505;51.450;9.254;2023-09-19T12:30:43;18.30;99.90
10905;DHT22;5505;51.450;9.254;2023-09-19T12:33:31;18.30;99.90
10905;DHT22;5505;51.450;9.254;2023-09-19T12:36:20;18.20;99.90
10905;DHT22;5505;51.450;9.254;2023-09-19T12:39:11;18.20;99.90
10905;DHT22;5505;51.450;9.254;2023-09-19T12:41:59;18.30;99.90
10905;DHT22;5505;51.450;9.254;2023-09-19T12:44:51;18.30;99.90
10905;DHT22;5505;51.450;9.254;2023-09-19T12:47:40;18.40;99.90
10905;DHT22;5505;51.450;9.254;2023-09-19T12:51:05;18.30;99.90
10905;DHT22;5505;51.450;9.254;2023-09-19T12:53:57;18.40;99.90
10905;DHT22;5505;51.450;9.254;2023-09-19T12:56:46;18.50;99.90
10905;DHT22;5505;51.450;9.254;2023-09-19T13:02:04;18.60;99.90
10905;DHT22;5505;51.450;9.254;2023-09-19T13:04:52;18.70;99.90
10905;DHT22;5505;51.450;9.254;2023-09-19T13:07:43;18.90;99.90
10905;DHT22;5505;51.450;9.254;2023-09-19T13:10:31;19.00;99.90
10905;DHT22;5505;51.450;9.254;2023-09-19T13:13:23;18.80;99.90
10905;DHT22;5505;51.450;9.254;2023-09-19T13:16:14;18.80;99.90
10905;DHT22;5505;51.450;9.254;2023-09-19T13:19:05;19.00;99.90
10905;DHT22;5505;51.450;9.254;2023-09-19T13:21:51;18.80;99.90
10905;DHT22;5505;51.450;9.254;2023-09-19T13:24:44;18.80;99.90
10905;DHT22;5505;51.450;9.254;2023-09-19T13:27:31;18.70;99.90
10905;DHT22;5505;51.450;9.254;2023-09-19T13:30:18;18.80;99.90
10905;DHT22;5505;51.450;9.254;2023-09-19T13:33:07;18.80;99.90
10905;DHT22;5505;51.450;9.254;2023-09-19T13:35:55;18.70;99.90
10905;DHT22;5505;51.450;9.254;2023-09-19T13:38:42;18.70;99.90
10905;DHT22;5505;51.450;9.254;2023-09-19T13:41:30;18.70;99.90
10905;DHT22;5505;51.450;9.254;2023-09-19T13:44:18;18.60;99.90
10905;DHT22;5505;51.450;9.254;2023-09-19T13:47:05;18.70;99.90
10905;DHT22;5505;51.450;9.254;2023-09-19T13:49:55;18.80;99.90
10905;DHT22;5505;51.450;9.254;2023-09-19T13:52:42;18.80;99.90
10905;DHT22;5505;51.450;9.254;2023-09-19T13:55:29;18.80;99.90
10905;DHT22;5505;51.450;9.254;2023-09-19T13:58:17;18.80;99.90
10905;DHT22;5505;51.450;9.254;2023-09-19T14:01:04;18.80;99.90
10905;DHT22;5505;51.450;9.254;2023-09-19T14:03:51;18.70;99.90
10905;DHT22;5505;51.450;9.254;2023-09-19T14:06:41;18.70;99.90
10905;DHT22;5505;51.450;9.254;2023-09-19T14:09:28;18.70;99.90
10905;DHT22;5505;51.450;9.254;2023-09-19T14:12:16;18.60;99.90
10905;DHT22;5505;51.450;9.254;2023-09-19T14:15:05;18.60;99.90
10905;DHT22;5505;51.450;9.254;2023-09-19T14:17:52;18.60;99.90
10905;DHT22;5505;51.450;9.254;2023-09-19T14:20:41;18.70;99.90
10905;DHT22;5505;51.450;9.254;2023-09-19T14:23:28;18.80;99.90
10905;DHT22;5505;51.450;9.254;2023-09-19T14:26:14;18.60;99.90
10905;DHT22;5505;51.450;9.254;2023-09-19T14:29:04;18.70;99.90
10905;DHT22;5505;51.450;9.254;2023-09-19T14:31:54;18.70;99.90
10905;DHT22;5505;51.450;9.254;2023-09-19T14:34:43;18.70;99.90
10905;DHT22;5505;51.450;9.254;2023-09-19T14:37:30;18.80;99.90
10905;DHT22;5505;51.450;9.254;2023-09-19T14:40:16;18.70;99.90
10905;DHT22;5505;51.450;9.254;2023-09-19T14:43:03;18.70;99.90
10905;DHT22;5505;51.450;9.254;2023-09-19T14:45:50;18.70;99.90
10905;DHT22;5505;51.450;9.254;2023-09-19T14:48:38;18.60;99.90
10905;DHT22;5505;51.450;9.254;2023-09-19T14:51:25;18.60;99.90
10905;DHT22;5505;51.450;9.254;2023-09-19T14:54:12;18.60;99.90
10905;DHT22;5505;51.450;9.254;2023-09-19T14:56:59;18.60;99.90
10905;DHT22;5505;51.450;9.254;2023-09-19T14:59:50;18.60;99.90
10905;DHT22;5505;51.450;9.254;2023-09-19T15:02:37;18.60;99.90
10905;DHT22;5505;51.450;9.254;2023-09-19T15:05:25;18.60;99.90
10905;DHT22;5505;51.450;9.254;2023-09-19T15:08:12;18.50;99.90
10905;DHT22;5505;51.450;9.254;2023-09-19T15:10:59;18.40;99.90
10905;DHT22;5505;51.450;9.254;2023-09-19T15:13:52;18.40;99.90
10905;DHT22;5505;51.450;9.254;2023-09-19T15:16:39;18.40;99.90
10905;DHT22;5505;51.450;9.254;2023-09-19T15:19:26;18.40;99.90
10905;DHT22;5505;51.450;9.254;2023-09-19T15:22:15;18.40;99.90
10905;DHT22;5505;51.450;9.254;2023-09-19T15:25:01;18.40;99.90
10905;DHT22;5505;51.450;9.254;2023-09-19T15:27:49;18.40;99.90
10905;DHT22;5505;51.450;9.254;2023-09-19T15:30:37;18.40;99.90
10905;DHT22;5505;51.450;9.254;2023-09-19T15:33:24;18.40;99.90
10905;DHT22;5505;51.450;9.254;2023-09-19T15:36:12;18.40;99.90
10905;DHT22;5505;51.450;9.254;2023-09-19T15:39:02;18.40;99.90
10905;DHT22;5505;51.450;9.254;2023-09-19T15:41:51;18.30;99.90
10905;DHT22;5505;51.450;9.254;2023-09-19T15:44:39;18.20;99.90
10905;DHT22;5505;51.450;9.254;2023-09-19T15:47:26;18.20;99.90
10905;DHT22;5505;51.450;9.254;2023-09-19T15:50:14;18.20;99.90
10905;DHT22;5505;51.450;9.254;2023-09-19T15:53:01;18.20;99.90
10905;DHT22;5505;51.450;9.254;2023-09-19T15:55:49;18.30;99.90
10905;DHT22;5505;51.450;9.254;2023-09-19T15:58:36;18.20;99.90
10905;DHT22;5505;51.450;9.254;2023-09-19T16:01:25;18.20;99.90
10905;DHT22;5505;51.450;9.254;2023-09-19T16:04:12;18.30;99.90
10905;DHT22;5505;51.450;9.254;2023-09-19T16:06:59;18.20;99.90
10905;DHT22;5505;51.450;9.254;2023-09-19T16:09:47;18.20;99.90
10905;DHT22;5505;51.450;9.254;2023-09-19T16:15:10;18.20;99.90
10905;DHT22;5505;51.450;9.254;2023-09-19T16:17:59;19.70;99.90
10905;DHT22;5505;51.450;9.254;2023-09-19T16:23:23;18.10;99.90
10905;DHT22;5505;51.450;9.254;2023-09-19T16:26:10;17.90;99.90
10905;DHT22;5505;51.450;9.254;2023-09-19T16:29:00;18.00;99.90
10905;DHT22;5505;51.450;9.254;2023-09-19T16:31:48;18.00;99.90
10905;DHT22;5505;51.450;9.254;2023-09-19T16:34:35;17.90;99.90
10905;DHT22;5505;51.450;9.254;2023-09-19T16:37:22;17.90;99.90
10905;DHT22;5505;51.450;9.254;2023-09-19T16:40:09;17.90;99.90
10905;DHT22;5505;51.450;9.254;2023-09-19T16:42:57;17.80;99.90
10905;DHT22;5505;51.450;9.254;2023-09-19T16:45:52;17.80;99.90
10905;DHT22;5505;51.450;9.254;2023-09-19T16:48:40;17.70;99.90
10905;DHT22;5505;51.450;9.254;2023-09-19T16:51:27;17.70;99.90
10905;DHT22;5505;51.450;9.254;2023-09-19T16:54:14;17.70;99.90
10905;DHT22;5505;51.450;9.254;2023-09-19T16:57:01;17.60;99.90
10905;DHT22;5505;51.450;9.254;2023-09-19T17:02:23;17.60;99.90
10905;DHT22;5505;51.450;9.254;2023-09-19T17:05:11;17.60;99.90
10905;DHT22;5505;51.450;9.254;2023-09-19T17:07:58;20.40;99.90
10905;DHT22;5505;51.450;9.254;2023-09-19T17:10:46;17.50;99.90
10905;DHT22;5505;51.450;9.254;2023-09-19T17:13:33;17.40;99.90
10905;DHT22;5505;51.450;9.254;2023-09-19T17:16:21;17.40;99.90
10905;DHT22;5505;51.450;9.254;2023-09-19T17:19:08;17.40;99.90
10905;DHT22;5505;51.450;9.254;2023-09-19T17:21:56;17.40;99.90
10905;DHT22;5505;51.450;9.254;2023-09-19T17:24:43;17.20;99.90
10905;DHT22;5505;51.450;9.254;2023-09-19T17:27:31;17.20;99.90
10905;DHT22;5505;51.450;9.254;2023-09-19T17:30:18;17.10;99.90
10905;DHT22;5505;51.450;9.254;2023-09-19T17:33:07;17.10;99.90
10905;DHT22;5505;51.450;9.254;2023-09-19T17:38:34;17.00;99.90
10905;DHT22;5505;51.450;9.254;2023-09-19T17:43:57;16.80;99.90
10905;DHT22;5505;51.450;9.254;2023-09-19T17:46:44;17.70;99.90
10905;DHT22;5505;51.450;9.254;2023-09-19T17:49:32;16.70;99.90
10905;DHT22;5505;51.450;9.254;2023-09-19T17:52:19;16.70;99.90
10905;DHT22;5505;51.450;9.254;2023-09-19T17:55:10;16.70;99.90
10905;DHT22;5505;51.450;9.254;2023-09-19T17:58:05;15.20;99.90
10905;DHT22;5505;51.450;9.254;2023-09-19T18:00:52;19.20;99.90
10905;DHT22;5505;51.450;9.254;2023-09-19T18:03:40;16.70;99.90
10905;DHT22;5505;51.450;9.254;2023-09-19T18:09:01;16.60;99.90
10905;DHT22;5505;51.450;9.254;2023-09-19T18:11:54;16.60;99.90
10905;DHT22;5505;51.450;9.254;2023-09-19T18:14:40;16.50;99.90
10905;DHT22;5505;51.450;9.254;2023-09-19T18:17:27;16.50;99.90
10905;DHT22;5505;51.450;9.254;2023-09-19T18:20:14;16.40;99.90
10905;DHT22;5505;51.450;9.254;2023-09-19T18:23:01;16.30;99.90
10905;DHT22;5505;51.450;9.254;2023-09-19T18:25:48;16.40;99.90
10905;DHT22;5505;51.450;9.254;2023-09-19T18:28:36;16.30;99.90